Time;durP1;ratioP1;P1;durP2;ratioP2;P2;SDS_P1;SDS_P2;PMS_P1;PMS_P2;Temp;Humidity;BMP_temperature;BMP_pressure;BME280_temperature;BME280_humidity;BME280_pressure;Samples;Min_cycle;Max_cycle;Signal;HPM_P1;HPM_P2
2021/05/13 00:01:28;;;;;;;10.80;7.20;;;9.60;99.90;;;;;;4938715;29;20437;-79
2021/05/13 00:03:56;;;;;;;7.30;6.60;;;9.60;99.90;;;;;;4938402;29;20657;-76
2021/05/13 00:06:23;;;;;;;8.55;6.75;;;9.60;99.90;;;;;;4956303;28;20238;-74
2021/05/13 00:08:57;;;;;;;8.63;6.25;;;9.60;99.90;;;;;;4969371;28;20223;-77
2021/05/13 00:11:31;;;;;;;9.65;6.57;;;9.60;99.90;;;;;;4953681;29;20611;-75
2021/05/13 00:14:01;;;;;;;6.60;6.00;;;9.80;99.90;;;;;;4954754;28;20218;-76
2021/05/13 00:16:33;;;;;;;8.30;6.65;;;9.60;99.90;;;;;;4938812;29;20208;-75
2021/05/13 00:19:05;;;;;;;8.70;6.65;;;9.60;99.90;;;;;;4937319;28;20223;-78
2021/05/13 00:21:33;;;;;;;8.23;6.30;;;9.50;99.90;;;;;;4955965;29;20200;-77
2021/05/13 00:24:00;;;;;;;7.72;6.75;;;9.40;99.90;;;;;;4919015;29;20282;-77
2021/05/13 00:26:38;;;;;;;7.75;6.85;;;9.40;99.90;;;;;;4938808;29;20208;-76
2021/05/13 00:29:16;;;;;;;8.02;6.57;;;9.40;99.90;;;;;;4955119;28;20234;-75
2021/05/13 00:31:43;;;;;;;6.82;6.22;;;9.30;99.90;;;;;;4955156;29;20192;-76
2021/05/13 00:34:10;;;;;;;6.50;5.88;;;9.20;99.90;;;;;;4937991;28;20209;-74
2021/05/13 00:36:38;;;;;;;6.95;6.35;;;9.20;99.90;;;;;;4956016;29;20545;-76
2021/05/13 00:39:08;;;;;;;8.05;7.25;;;9.10;99.90;;;;;;4953975;28;20706;-77
2021/05/13 00:41:35;;;;;;;8.07;7.28;;;9.00;99.90;;;;;;4970661;28;20187;-76
2021/05/13 00:44:03;;;;;;;8.10;7.47;;;9.00;99.90;;;;;;4957151;28;20224;-78
2021/05/13 00:46:31;;;;;;;7.13;6.43;;;9.10;99.90;;;;;;4975070;28;20226;-75
2021/05/13 00:49:04;;;;;;;8.18;7.03;;;9.10;99.90;;;;;;4973152;28;20219;-76
2021/05/13 00:51:31;;;;;;;9.02;7.35;;;9.10;99.90;;;;;;4975073;28;20273;-76
2021/05/13 00:53:59;;;;;;;7.25;6.65;;;9.10;99.90;;;;;;4973548;28;20218;-77
2021/05/13 00:56:30;;;;;;;7.35;6.70;;;9.10;99.90;;;;;;4965369;28;20240;-75
2021/05/13 00:59:03;;;;;;;8.98;8.00;;;9.10;99.90;;;;;;4940726;28;20695;-77
2021/05/13 01:01:39;;;;;;;8.10;7.30;;;9.10;99.90;;;;;;4954785;29;20199;-76
2021/05/13 01:04:06;;;;;;;7.78;7.10;;;9.00;99.90;;;;;;4954595;28;20216;-76
2021/05/13 01:06:35;;;;;;;6.78;6.18;;;8.90;99.90;;;;;;4955274;29;20295;-77
2021/05/13 01:09:10;;;;;;;8.43;7.57;;;9.00;99.90;;;;;;4953424;28;20247;-75
2021/05/13 01:11:41;;;;;;;9.38;7.10;;;9.00;99.90;;;;;;4938475;29;20195;-76
2021/05/13 01:14:28;;;;;;;7.43;6.63;;;9.00;99.90;;;;;;4954293;28;20216;-77
2021/05/13 01:19:34;;;;;;;11.63;7.75;;;9.10;99.90;;;;;;4964976;28;20219;-75
2021/05/13 01:22:02;;;;;;;7.07;6.38;;;9.10;99.90;;;;;;4937821;29;20197;-76
2021/05/13 01:24:29;;;;;;;7.00;6.30;;;9.10;99.90;;;;;;4968588;28;20332;-76
2021/05/13 01:26:57;;;;;;;8.70;7.47;;;9.10;99.90;;;;;;4970022;28;20222;-76
2021/05/13 01:29:27;;;;;;;8.13;6.55;;;9.00;99.90;;;;;;4934984;29;20306;-74
2021/05/13 01:31:54;;;;;;;8.35;7.63;;;8.90;99.90;;;;;;4918875;29;20737;-76
2021/05/13 01:34:22;;;;;;;9.20;8.15;;;8.90;99.90;;;;;;4972304;28;20226;-77
2021/05/13 01:36:49;;;;;;;8.68;7.82;;;8.90;99.90;;;;;;4956726;28;20676;-76
2021/05/13 01:39:17;;;;;;;10.32;7.57;;;8.90;99.90;;;;;;4972193;28;20255;-77
2021/05/13 01:41:45;;;;;;;8.70;7.85;;;8.90;99.90;;;;;;4956893;28;20642;-77
2021/05/13 01:44:12;;;;;;;8.10;6.93;;;8.90;99.90;;;;;;4973298;28;20623;-75
2021/05/13 01:46:40;;;;;;;10.95;7.45;;;8.90;99.90;;;;;;4955673;28;20584;-76
2021/05/13 01:49:16;;;;;;;7.40;6.70;;;8.80;99.90;;;;;;4971882;28;20219;-76
2021/05/13 01:51:44;;;;;;;12.57;8.02;;;8.70;99.90;;;;;;4956470;28;20530;-75
2021/05/13 01:54:11;;;;;;;7.13;6.43;;;8.70;99.90;;;;;;4972540;28;20273;-74
2021/05/13 01:56:38;;;;;;;9.35;7.35;;;8.80;99.90;;;;;;4956593;28;20216;-75
2021/05/13 01:59:05;;;;;;;9.55;7.65;;;8.90;99.90;;;;;;4971516;28;20273;-76
2021/05/13 02:01:32;;;;;;;8.20;7.38;;;8.90;99.90;;;;;;4956603;28;20410;-78
2021/05/13 02:04:00;;;;;;;9.10;7.07;;;8.80;99.90;;;;;;4971793;28;20215;-74
2021/05/13 02:06:27;;;;;;;7.70;6.75;;;8.80;99.90;;;;;;4979325;28;20215;-74
2021/05/13 02:08:54;;;;;;;7.93;7.30;;;8.70;99.90;;;;;;4954107;28;20244;-76
2021/05/13 02:11:20;;;;;;;7.05;6.35;;;8.70;99.90;;;;;;4958797;28;20183;-76
2021/05/13 02:13:48;;;;;;;7.85;6.78;;;8.60;99.90;;;;;;4966821;28;20302;-76
2021/05/13 02:16:15;;;;;;;9.30;7.53;;;8.60;99.90;;;;;;4955916;28;20298;-77
2021/05/13 02:18:42;;;;;;;7.63;6.85;;;8.70;99.90;;;;;;4941946;28;20240;-75
2021/05/13 02:21:08;;;;;;;6.88;6.28;;;8.70;99.90;;;;;;4970931;28;20217;-78
2021/05/13 02:23:35;;;;;;;10.93;7.90;;;8.70;99.90;;;;;;4954418;28;20229;-76
2021/05/13 02:26:03;;;;;;;7.55;5.90;;;8.60;99.90;;;;;;4972797;28;20219;-75
2021/05/13 02:28:29;;;;;;;7.18;6.47;;;8.60;99.90;;;;;;4955011;28;20217;-75
2021/05/13 02:30:56;;;;;;;7.80;5.78;;;8.60;99.90;;;;;;4973012;28;20246;-75
2021/05/13 02:33:23;;;;;;;7.55;6.13;;;8.50;99.90;;;;;;4970826;28;20651;-77
2021/05/13 02:35:51;;;;;;;8.45;6.43;;;8.50;99.90;;;;;;4971750;28;20642;-76
2021/05/13 02:38:17;;;;;;;7.68;6.40;;;8.50;99.90;;;;;;4954956;28;20824;-75
2021/05/13 02:40:44;;;;;;;7.70;6.72;;;8.40;99.90;;;;;;4955130;28;20207;-76
2021/05/13 02:43:11;;;;;;;9.38;8.30;;;8.40;99.90;;;;;;4972534;28;20291;-76
2021/05/13 02:45:38;;;;;;;8.75;7.10;;;8.40;99.90;;;;;;4955879;28;20195;-76
2021/05/13 02:48:05;;;;;;;8.55;6.90;;;8.50;99.90;;;;;;4954289;28;20243;-78
2021/05/13 02:50:32;;;;;;;9.73;6.82;;;8.50;99.90;;;;;;4972538;28;20218;-76
2021/05/13 02:52:59;;;;;;;9.23;7.38;;;8.40;99.90;;;;;;4971970;28;20779;-76
2021/05/13 02:55:26;;;;;;;9.32;7.45;;;8.40;99.90;;;;;;4938946;28;20645;-75
2021/05/13 02:57:53;;;;;;;7.30;6.13;;;8.50;99.90;;;;;;4950611;28;20262;-74
2021/05/13 03:00:26;;;;;;;7.05;5.55;;;8.40;99.90;;;;;;4951744;29;20191;-78
2021/05/13 03:02:54;;;;;;;9.10;6.53;;;8.30;99.90;;;;;;4962818;28;20534;-76
2021/05/13 03:05:28;;;;;;;8.30;6.05;;;8.20;99.90;;;;;;4955217;28;20250;-73
2021/05/13 03:08:03;;;;;;;6.97;6.38;;;8.30;99.90;;;;;;4971075;28;20711;-78
2021/05/13 03:12:57;;;;;;;5.57;5.07;;;8.20;99.90;;;;;;4972286;28;20230;-78
2021/05/13 03:15:24;;;;;;;7.75;6.30;;;8.20;99.90;;;;;;4970821;28;20568;-75
2021/05/13 03:17:52;;;;;;;7.20;6.60;;;8.20;99.90;;;;;;4964389;28;20252;-77
2021/05/13 03:20:25;;;;;;;7.15;6.55;;;8.20;99.90;;;;;;4951443;29;20251;-76
2021/05/13 03:22:56;;;;;;;6.38;5.78;;;8.20;99.90;;;;;;4952723;28;20215;-76
2021/05/13 03:25:32;;;;;;;6.80;6.00;;;8.20;99.90;;;;;;4968588;28;20195;-77
2021/05/13 03:28:11;;;;;;;5.38;4.97;;;8.20;99.90;;;;;;4971553;28;20214;-75
2021/05/13 03:30:41;;;;;;;5.00;4.50;;;8.10;99.90;;;;;;4971025;28;20221;-77
2021/05/13 03:33:08;;;;;;;5.88;5.35;;;8.00;99.90;;;;;;4970832;28;20274;-76
2021/05/13 03:35:36;;;;;;;7.00;5.55;;;7.90;99.90;;;;;;4955074;28;20194;-79
2021/05/13 03:38:04;;;;;;;6.30;5.55;;;7.90;99.90;;;;;;4971533;28;20306;-74
2021/05/13 03:40:35;;;;;;;5.88;5.35;;;7.90;99.90;;;;;;4971979;28;20207;-75
2021/05/13 03:43:03;;;;;;;6.40;5.50;;;7.80;99.90;;;;;;4971723;28;20212;-74
2021/05/13 03:45:31;;;;;;;7.97;5.82;;;7.80;99.90;;;;;;4972642;28;20206;-77
2021/05/13 03:48:02;;;;;;;6.82;5.40;;;7.80;99.90;;;;;;4945729;28;20234;-75
2021/05/13 03:50:34;;;;;;;5.18;4.75;;;7.80;99.90;;;;;;4972297;28;20207;-74
2021/05/13 03:53:02;;;;;;;6.40;5.13;;;;;;;;;;4933222;29;20218;-75
2021/05/13 03:55:32;;;;;;;8.35;5.93;;;7.70;99.90;;;;;;4955877;29;20196;-75
2021/05/13 03:58:02;;;;;;;6.15;5.57;;;7.70;99.90;;;;;;4966988;28;20213;-75
2021/05/13 04:00:37;;;;;;;6.50;5.90;;;7.80;99.90;;;;;;4929462;29;20199;-77
2021/05/13 04:03:04;;;;;;;5.65;5.15;;;7.80;99.90;;;;;;4940520;29;20243;-73
2021/05/13 04:05:31;;;;;;;6.28;5.70;;;7.80;99.90;;;;;;4955453;29;20263;-75
2021/05/13 04:07:58;;;;;;;5.60;5.05;;;7.80;99.90;;;;;;4955527;28;20232;-78
2021/05/13 04:10:25;;;;;;;7.15;5.15;;;7.70;99.90;;;;;;4955216;28;20239;-77
2021/05/13 04:12:55;;;;;;;5.45;4.95;;;7.70;99.90;;;;;;4954487;28;20651;-76
2021/05/13 04:15:22;;;;;;;6.00;5.50;;;7.60;99.90;;;;;;4955275;28;20597;-75
2021/05/13 04:17:49;;;;;;;6.75;6.18;;;7.70;99.90;;;;;;4954203;28;20557;-78
2021/05/13 04:20:16;;;;;;;6.35;5.75;;;7.70;99.90;;;;;;4955318;29;20192;-75
2021/05/13 04:22:45;;;;;;;5.95;4.63;;;7.60;99.90;;;;;;4970758;28;20724;-76
2021/05/13 04:25:13;;;;;;;6.00;5.25;;;7.70;99.90;;;;;;4940215;29;20200;-75
2021/05/13 04:27:39;;;;;;;5.10;4.60;;;7.80;99.90;;;;;;4936243;28;20228;-76
2021/05/13 04:30:10;;;;;;;5.00;4.00;;;7.80;99.90;;;;;;4952765;29;20239;-76
2021/05/13 04:32:37;;;;;;;6.78;4.70;;;7.80;99.90;;;;;;4954427;29;20222;-74
2021/05/13 04:35:04;;;;;;;4.50;4.20;;;7.90;99.90;;;;;;4954913;28;20220;-74
2021/05/13 04:37:31;;;;;;;6.82;5.57;;;7.80;99.90;;;;;;4955254;28;20310;-76
2021/05/13 04:39:58;;;;;;;4.80;4.40;;;7.80;99.90;;;;;;4947704;28;20275;-75
2021/05/13 04:42:25;;;;;;;4.78;4.32;;;7.80;99.90;;;;;;4974728;28;20218;-73
2021/05/13 04:44:53;;;;;;;5.07;4.68;;;7.90;99.90;;;;;;4941833;28;20668;-75
2021/05/13 04:48:07;;;;;;;5.70;5.30;;;8.00;99.90;;;;;;4970399;28;20230;-75
2021/05/13 04:50:10;;;;;;;5.70;4.38;;;8.10;99.90;;;;;;4935402;29;20212;-74
2021/05/13 04:52:37;;;;;;;4.63;4.25;;;8.10;99.90;;;;;;4955402;28;20240;-74
2021/05/13 04:55:06;;;;;;;4.28;3.97;;;8.20;99.90;;;;;;4955004;29;20189;-75
2021/05/13 04:57:36;;;;;;;3.42;3.13;;;8.30;99.90;;;;;;4954843;28;20259;-74
2021/05/13 05:00:08;;;;;;;5.68;4.20;;;8.30;99.90;;;;;;4954989;29;20184;-75
2021/05/13 05:02:35;;;;;;;8.00;4.38;;;8.40;99.90;;;;;;4953406;28;20238;-77
2021/05/13 05:05:03;;;;;;;4.60;4.20;;;8.50;99.90;;;;;;4955278;29;20194;-75
2021/05/13 05:07:30;;;;;;;5.35;4.75;;;8.60;99.90;;;;;;4954519;29;20694;-77
2021/05/13 05:09:57;;;;;;;4.78;4.40;;;8.70;99.90;;;;;;4932811;29;20223;-74
2021/05/13 05:12:24;;;;;;;4.40;4.00;;;8.80;99.90;;;;;;4958538;28;20222;-78
2021/05/13 05:14:51;;;;;;;5.05;4.60;;;8.80;99.90;;;;;;4977506;28;20179;-75
2021/05/13 05:17:21;;;;;;;4.93;4.50;;;8.90;99.90;;;;;;4951579;28;20310;-76
2021/05/13 05:19:48;;;;;;;4.88;4.47;;;9.00;99.90;;;;;;4960791;28;20672;-75
2021/05/13 05:22:15;;;;;;;4.53;3.88;;;9.20;99.90;;;;;;4957081;28;20216;-77
2021/05/13 05:24:42;;;;;;;5.30;4.80;;;9.30;99.90;;;;;;4984465;28;20191;-74
2021/05/13 05:27:09;;;;;;;5.25;4.13;;;9.40;99.90;;;;;;4938680;28;20606;-74
2021/05/13 05:29:36;;;;;;;4.70;4.30;;;9.50;99.90;;;;;;4957185;28;20483;-76
2021/05/13 05:32:03;;;;;;;5.20;4.55;;;9.60;99.90;;;;;;4973716;28;20302;-74
2021/05/13 05:34:30;;;;;;;6.25;4.70;;;9.70;99.90;;;;;;4956619;28;20528;-76
2021/05/13 05:36:58;;;;;;;6.28;5.10;;;9.90;99.90;;;;;;4974066;28;20230;-75
2021/05/13 05:39:28;;;;;;;3.75;3.45;;;10.00;99.90;;;;;;4954207;28;20699;-74
2021/05/13 05:41:58;;;;;;;4.60;4.00;;;10.10;99.90;;;;;;4973275;28;20667;-81
2021/05/13 05:44:27;;;;;;;5.53;4.97;;;10.30;99.90;;;;;;4957025;28;20183;-76
2021/05/13 05:46:54;;;;;;;4.97;4.03;;;10.50;99.90;;;;;;4981123;28;20462;-75
2021/05/13 05:49:35;;;;;;;5.10;3.70;;;10.80;99.90;;;;;;4987399;28;20550;-74
2021/05/13 05:52:14;;;;;;;5.07;4.60;;;11.20;99.90;;;;;;4955965;28;20562;-75
2021/05/13 05:54:41;;;;;;;3.60;3.30;;;11.90;99.90;;;;;;4972723;28;20445;-74
2021/05/13 05:57:10;;;;;;;4.67;3.70;;;12.40;99.90;;;;;;4952443;28;20869;-75
2021/05/13 05:59:40;;;;;;;4.03;3.63;;;12.90;99.90;;;;;;4940692;28;20482;-74
2021/05/13 06:02:08;;;;;;;3.87;3.57;;;13.60;99.90;;;;;;4981199;28;20443;-76
2021/05/13 06:04:35;;;;;;;3.83;3.43;;;13.90;99.90;;;;;;4937733;28;20463;-76
2021/05/13 06:07:02;;;;;;;5.20;3.50;;;14.10;99.90;;;;;;4953218;28;20453;-76
2021/05/13 06:09:31;;;;;;;4.63;4.20;;;14.60;99.90;;;;;;4970958;28;20501;-76
2021/05/13 06:11:58;;;;;;;3.63;3.33;;;14.70;99.90;;;;;;4972502;28;20473;-76
2021/05/13 06:14:25;;;;;;;3.83;3.43;;;15.00;99.90;;;;;;4956155;28;20868;-74
2021/05/13 06:16:55;;;;;;;3.93;3.53;;;14.90;99.90;;;;;;4955912;28;20508;-76
2021/05/13 06:19:26;;;;;;;3.47;3.17;;;14.90;99.90;;;;;;4969055;28;20461;-76
2021/05/13 06:21:53;;;;;;;7.20;3.90;;;14.80;99.90;;;;;;4960366;28;20437;-74
2021/05/13 06:24:20;;;;;;;5.13;4.37;;;14.70;99.90;;;;;;4947959;28;20901;-74
2021/05/13 06:27:05;;;;;;;6.23;4.47;;;14.60;99.90;;;;;;4970296;28;20490;-74
2021/05/13 06:29:33;;;;;;;5.23;4.00;;;14.60;99.90;;;;;;4973149;28;20458;-73
2021/05/13 06:32:00;;;;;;;5.57;4.33;;;14.80;99.90;;;;;;4971537;28;20474;-74
2021/05/13 06:34:28;;;;;;;4.07;3.70;;;15.10;99.90;;;;;;4936798;29;20447;-76
2021/05/13 06:37:01;;;;;;;3.80;3.50;;;15.50;99.90;;;;;;4969193;28;20973;-78
2021/05/13 06:39:29;;;;;;;6.23;3.80;;;15.60;99.90;;;;;;4958869;28;20495;-75
2021/05/13 06:41:56;;;;;;;5.83;4.40;;;15.60;99.90;;;;;;4957510;28;20451;-73
2021/05/13 06:44:23;;;;;;;5.27;3.57;;;15.60;99.90;;;;;;4954999;29;20543;-75
2021/05/13 06:46:51;;;;;;;4.70;3.83;;;15.60;99.90;;;;;;4951970;29;20560;-75
2021/05/13 06:49:19;;;;;;;7.43;3.50;;;15.70;99.90;;;;;;4934829;28;20504;-74
2021/05/13 06:51:46;;;;;;;4.03;3.13;;;15.60;99.90;;;;;;4953033;28;20554;-76
2021/05/13 06:54:15;;;;;;;4.77;3.20;;;15.50;99.90;;;;;;4951210;28;20511;-75
2021/05/13 06:56:43;;;;;;;2.83;2.60;;;15.40;99.90;;;;;;4952852;29;20589;-73
2021/05/13 06:59:11;;;;;;;3.87;2.93;;;15.40;99.90;;;;;;4951962;29;20487;-76
2021/05/13 07:01:38;;;;;;;4.90;3.63;;;15.40;99.90;;;;;;4953806;28;20870;-77
2021/05/13 07:04:09;;;;;;;3.97;2.80;;;15.30;99.90;;;;;;4952109;28;20486;-74
2021/05/13 07:06:41;;;;;;;4.23;3.57;;;15.30;99.90;;;;;;4952537;29;20447;-76
2021/05/13 07:09:08;;;;;;;5.90;3.47;;;15.30;99.90;;;;;;4952307;28;20507;-75
2021/05/13 07:11:37;;;;;;;3.87;3.40;;;15.50;99.90;;;;;;4952342;29;20472;-74
2021/05/13 07:14:04;;;;;;;4.20;3.50;;;15.50;99.90;;;;;;4964729;28;20469;-75
2021/05/13 07:16:33;;;;;;;4.57;3.33;;;15.40;99.90;;;;;;4959772;28;20463;-73
2021/05/13 07:19:02;;;;;;;8.17;3.60;;;15.30;99.90;;;;;;4942799;29;20472;-74
2021/05/13 07:21:29;;;;;;;4.53;3.33;;;15.30;99.90;;;;;;4952941;29;20942;-74
2021/05/13 07:24:01;;;;;;;4.27;3.87;;;15.20;99.90;;;;;;4947989;28;20586;-77
2021/05/13 07:26:30;;;;;;;6.47;5.27;;;15.10;99.90;;;;;;4948322;28;20466;-75
2021/05/13 07:28:57;;;;;;;6.37;5.50;;;15.20;99.90;;;;;;4954990;28;20557;-73
2021/05/13 07:31:24;;;;;;;5.80;5.30;;;15.20;99.90;;;;;;4955871;28;20463;-76
2021/05/13 07:33:54;;;;;;;5.97;5.47;;;15.30;99.90;;;;;;4955261;28;20841;-74
2021/05/13 07:36:24;;;;;;;6.67;5.97;;;15.40;99.90;;;;;;4957148;29;20911;-75
2021/05/13 07:38:54;;;;;;;8.07;5.73;;;15.40;99.90;;;;;;4955674;28;20894;-75
2021/05/13 07:41:22;;;;;;;6.90;6.40;;;15.50;99.90;;;;;;4940019;29;20455;-73
2021/05/13 07:43:52;;;;;;;7.50;6.70;;;15.60;99.90;;;;;;4956426;28;20473;-77
2021/05/13 07:46:20;;;;;;;6.30;4.83;;;15.70;99.90;;;;;;4971880;28;20471;-74
2021/05/13 07:48:50;;;;;;;6.40;5.80;;;15.80;99.90;;;;;;4954249;28;20731;-73
2021/05/13 07:51:22;;;;;;;9.37;7.00;;;15.90;99.90;;;;;;4952094;29;21061;-76
2021/05/13 07:53:49;;;;;;;7.87;7.17;;;16.00;99.90;;;;;;4946264;28;20472;-75
2021/05/13 07:56:16;;;;;;;7.13;6.27;;;16.00;99.90;;;;;;4956855;28;20880;-76
2021/05/13 07:58:46;;;;;;;5.20;4.70;;;16.10;99.90;;;;;;4954469;28;21027;-75
2021/05/13 08:01:12;;;;;;;4.20;3.87;;;16.20;99.90;;;;;;4955617;28;20894;-76
2021/05/13 08:03:42;;;;;;;5.57;4.80;;;16.30;99.90;;;;;;4953880;29;20526;-75
2021/05/13 08:06:12;;;;;;;5.27;4.87;;;16.30;99.90;;;;;;4953850;28;20902;-73
2021/05/13 08:08:39;;;;;;;7.47;5.10;;;16.40;99.90;;;;;;4957037;28;20559;-75
2021/05/13 08:11:06;;;;;;;5.77;4.90;;;16.50;99.90;;;;;;4957902;28;20530;-76
2021/05/13 08:13:33;;;;;;;5.90;5.30;;;16.40;99.90;;;;;;4956751;28;20526;-75
2021/05/13 08:16:03;;;;;;;5.53;5.03;;;16.30;99.90;;;;;;4971414;28;20506;-73
2021/05/13 08:18:30;;;;;;;3.57;3.27;;;16.30;99.90;;;;;;4956835;28;20486;-75
2021/05/13 08:20:57;;;;;;;4.10;3.70;;;16.40;99.90;;;;;;4956393;28;20555;-74
2021/05/13 08:23:24;;;;;;;4.43;4.03;;;16.60;99.90;;;;;;4943831;28;20599;-77
2021/05/13 08:25:52;;;;;;;4.73;3.50;;;16.70;99.90;;;;;;4955401;28;20440;-75
2021/05/13 08:28:24;;;;;;;3.80;3.43;;;16.80;99.90;;;;;;4953728;28;20467;-75
2021/05/13 08:30:55;;;;;;;4.30;3.53;;;16.90;99.90;;;;;;4955041;28;20465;-74
2021/05/13 08:33:25;;;;;;;5.20;3.10;;;16.90;99.90;;;;;;4954392;28;20511;-76
2021/05/13 08:35:52;;;;;;;3.93;3.50;;;17.00;99.90;;;;;;4955459;28;20494;-76
2021/05/13 08:38:22;;;;;;;3.80;3.07;;;17.20;97.30;;;;;;4953165;28;20463;-76
2021/05/13 08:40:49;;;;;;;6.03;2.97;;;17.20;96.90;;;;;;4970722;28;20458;-76
2021/05/13 08:43:28;;;;;;;2.70;2.50;;;17.30;96.30;;;;;;4954074;28;20452;-76
2021/05/13 08:45:57;;;;;;;5.30;2.93;;;17.40;95.20;;;;;;4955832;28;20426;-74
2021/05/13 08:48:28;;;;;;;9.23;2.83;;;17.60;94.50;;;;;;4953441;28;20467;-75
2021/05/13 08:51:04;;;;;;;7.13;2.20;;;17.70;94.60;;;;;;4954415;28;20550;-76
2021/05/13 08:53:31;;;;;;;2.43;1.70;;;17.70;90.30;;;;;;4950875;28;20495;-75
2021/05/13 08:56:01;;;;;;;2.33;2.10;;;17.80;84.40;;;;;;4970139;28;20476;-74
2021/05/13 08:58:32;;;;;;;3.73;1.80;;;17.80;86.80;;;;;;4950482;28;20504;-75
2021/05/13 09:01:03;;;;;;;3.30;1.80;;;18.00;87.20;;;;;;4951641;29;20776;-75
2021/05/13 09:03:38;;;;;;;3.83;1.90;;;18.10;90.30;;;;;;4940759;29;20566;-77
2021/05/13 09:06:06;;;;;;;5.30;1.83;;;18.30;80.60;;;;;;4954309;29;20563;-73
2021/05/13 09:08:49;;;;;;;3.90;1.60;;;18.50;83.90;;;;;;4938939;29;20811;-73
2021/05/13 09:11:25;;;;;;;4.03;1.90;;;18.50;76.00;;;;;;4954481;28;20482;-73
2021/05/13 09:14:00;;;;;;;2.50;1.73;;;18.50;68.60;;;;;;4969743;28;20852;-73
2021/05/13 09:16:35;;;;;;;4.67;1.93;;;18.40;73.60;;;;;;4954018;29;20495;-75
2021/05/13 09:19:24;;;;;;;1.73;1.53;;;18.40;83.00;;;;;;4967307;28;20486;-76
2021/05/13 09:21:59;;;;;;;3.13;1.77;;;18.60;80.60;;;;;;4954551;29;20460;-73
2021/05/13 09:25:04;;;;;;;3.60;1.73;;;18.70;76.30;;;;;;4954139;28;20555;-75
2021/05/13 09:27:51;;;;;;;1.93;1.60;;;18.70;76.00;;;;;;4953400;28;20499;-73
2021/05/13 09:30:29;;;;;;;5.27;1.97;;;18.80;68.30;;;;;;4954263;28;20946;-75
2021/05/13 09:32:59;;;;;;;2.70;1.80;;;18.90;67.80;;;;;;4949065;28;20481;-75
2021/05/13 09:35:34;;;;;;;3.30;1.97;;;18.90;71.00;;;;;;4950252;29;20447;-75
2021/05/13 09:38:07;;;;;;;10.53;1.53;;;19.00;71.50;;;;;;4954023;28;21001;-75
2021/05/13 09:40:41;;;;;;;6.03;1.90;;;19.20;72.10;;;;;;4935284;29;20459;-74
2021/05/13 09:43:16;;;;;;;2.70;1.47;;;19.30;69.90;;;;;;4951720;28;21072;-75
2021/05/13 09:46:04;;;;;;;2.40;1.60;;;19.20;70.50;;;;;;4954721;28;20441;-75
2021/05/13 09:48:38;;;;;;;3.67;1.80;;;19.30;72.60;;;;;;4951946;28;20818;-76
2021/05/13 09:51:21;;;;;;;3.60;1.13;;;19.20;68.40;;;;;;4953787;29;20481;-75
2021/05/13 09:54:08;;;;;;;2.50;1.50;;;19.20;63.10;;;;;;4952302;28;20596;-73
2021/05/13 09:56:38;;;;;;;6.73;2.30;;;19.10;66.40;;;;;;4971176;28;20562;-74
2021/05/13 09:59:24;;;;;;;4.53;1.30;;;19.10;66.50;;;;;;4954117;28;20462;-75
2021/05/13 10:01:56;;;;;;;2.93;1.17;;;19.10;64.00;;;;;;4950944;28;21016;-76
2021/05/13 10:04:24;;;;;;;4.40;1.73;;;19.10;63.60;;;;;;4953826;28;20475;-76
2021/05/13 10:06:52;;;;;;;4.70;1.40;;;19.10;63.00;;;;;;4954895;28;20515;-74
2021/05/13 10:09:21;;;;;;;3.30;1.87;;;19.10;63.00;;;;;;4951533;28;20544;-75
2021/05/13 10:11:57;;;;;;;3.90;1.97;;;19.10;61.90;;;;;;4954043;29;20554;-76
2021/05/13 10:14:26;;;;;;;3.87;1.40;;;19.20;65.30;;;;;;4953522;29;20511;-76
2021/05/13 10:16:55;;;;;;;3.97;1.40;;;19.20;60.30;;;;;;4954056;28;20449;-75
2021/05/13 10:19:28;;;;;;;2.70;1.50;;;19.10;59.30;;;;;;4949768;28;20496;-73
2021/05/13 10:21:56;;;;;;;5.00;1.57;;;19.00;61.70;;;;;;4954462;28;20503;-72
2021/05/13 10:24:23;;;;;;;4.93;2.23;;;18.90;60.50;;;;;;4956770;28;20469;-74
2021/05/13 10:26:51;;;;;;;2.73;1.00;;;19.00;60.10;;;;;;4969524;28;20564;-72
2021/05/13 10:29:20;;;;;;;2.63;1.43;;;19.20;60.70;;;;;;4968082;28;20474;-74
2021/05/13 10:32:16;;;;;;;3.40;1.83;;;19.30;64.60;;;;;;4952445;28;20847;-76
2021/05/13 10:34:58;;;;;;;4.40;1.50;;;19.40;58.70;;;;;;4952875;29;20486;-75
2021/05/13 10:37:36;;;;;;;5.13;1.60;;;19.40;61.50;;;;;;4953946;28;20492;-75
2021/05/13 10:42:44;;;;;;;1.87;1.20;;;19.60;58.20;;;;;;4954705;28;20493;-76
2021/05/13 10:45:24;;;;;;;2.87;1.50;;;19.60;57.50;;;;;;4974719;28;20442;-75
2021/05/13 10:48:18;;;;;;;2.43;1.17;;;19.60;59.10;;;;;;4948826;28;20841;-75
2021/05/13 10:50:58;;;;;;;3.80;1.40;;;19.70;60.50;;;;;;4971170;28;20470;-72
2021/05/13 10:53:38;;;;;;;1.67;1.33;;;19.70;57.70;;;;;;4960492;28;20478;-75
2021/05/13 10:56:20;;;;;;;3.10;0.97;;;19.80;62.50;;;;;;4933820;29;20499;-75
2021/05/13 10:59:02;;;;;;;6.17;1.80;;;20.00;62.30;;;;;;4934872;28;20472;-74
2021/05/13 11:01:53;;;;;;;1.80;1.30;;;20.00;55.30;;;;;;4933081;29;20873;-75
2021/05/13 11:04:20;;;;;;;5.13;1.43;;;20.00;62.10;;;;;;4966056;28;20510;-74
2021/05/13 11:06:52;;;;;;;2.03;1.43;;;20.10;59.60;;;;;;4955635;28;20820;-73
2021/05/13 11:09:38;;;;;;;2.17;1.57;;;20.00;56.20;;;;;;4931653;28;21065;-74
2021/05/13 11:12:13;;;;;;;2.20;0.93;;;19.90;56.20;;;;;;4936377;28;20458;-72
2021/05/13 11:17:42;;;;;;;2.70;1.20;;;19.90;57.70;;;;;;4971869;28;20466;-75
2021/05/13 11:20:34;;;;;;;2.13;1.30;;;19.80;56.70;;;;;;4955166;28;20440;-74
2021/05/13 11:23:05;;;;;;;2.67;1.67;;;19.80;56.60;;;;;;4965354;28;20461;-76
2021/05/13 11:25:43;;;;;;;2.63;1.33;;;19.90;57.50;;;;;;4969856;28;20441;-75
2021/05/13 11:28:23;;;;;;;3.50;1.33;;;19.80;56.00;;;;;;4954223;28;20620;-75
2021/05/13 11:31:14;;;;;;;2.13;1.33;;;19.60;55.50;;;;;;4973169;28;20419;-73
2021/05/13 11:33:47;;;;;;;3.70;1.60;;;19.60;55.70;;;;;;4954080;28;20485;-75
2021/05/13 11:36:21;;;;;;;3.47;1.50;;;19.60;53.20;;;;;;4971136;28;20553;-73
2021/05/13 11:39:06;;;;;;;1.70;1.30;;;19.60;55.60;;;;;;4970942;28;21090;-73
2021/05/13 11:41:37;;;;;;;2.97;1.53;;;19.40;56.00;;;;;;4940722;29;20456;-75
2021/05/13 11:44:04;;;;;;;2.77;1.20;;;19.30;56.70;;;;;;4952383;28;20521;-76
2021/05/13 11:46:36;;;;;;;1.80;1.23;;;19.20;57.10;;;;;;4935787;29;20513;-75
2021/05/13 11:49:08;;;;;;;2.07;1.17;;;19.10;53.50;;;;;;4924962;28;20482;-75
2021/05/13 11:51:39;;;;;;;2.27;1.50;;;19.10;58.30;;;;;;4917175;29;20474;-75
2021/05/13 11:54:08;;;;;;;2.67;1.27;;;18.90;57.40;;;;;;4927197;29;20480;-75
2021/05/13 11:56:37;;;;;;;4.10;1.50;;;18.80;56.70;;;;;;4933123;29;20437;-73
2021/05/13 11:59:10;;;;;;;4.33;1.53;;;18.70;58.60;;;;;;4907746;29;20474;-77
2021/05/13 12:01:43;;;;;;;1.80;1.00;;;18.80;57.30;;;;;;4917492;29;20427;-75
2021/05/13 12:04:17;;;;;;;3.43;1.57;;;18.80;58.10;;;;;;4951093;28;20473;-76
2021/05/13 12:06:55;;;;;;;3.13;1.60;;;18.70;57.70;;;;;;4954481;28;20467;-76
2021/05/13 12:09:25;;;;;;;3.33;1.63;;;18.70;61.30;;;;;;4952650;29;20461;-74
2021/05/13 12:11:58;;;;;;;5.10;1.73;;;18.70;58.30;;;;;;4954065;28;20468;-77
2021/05/13 12:14:40;;;;;;;2.43;1.57;;;18.80;56.90;;;;;;4929590;29;20463;-75
2021/05/13 12:17:11;;;;;;;3.77;1.83;;;18.80;59.60;;;;;;4944219;29;20512;-76
2021/05/13 12:19:40;;;;;;;2.70;1.77;;;18.70;60.50;;;;;;4957260;29;20474;-74
2021/05/13 12:22:23;;;;;;;3.10;1.80;;;18.80;62.70;;;;;;4923554;28;20438;-78
2021/05/13 12:24:53;;;;;;;2.77;1.43;;;18.80;60.30;;;;;;4969735;28;20483;-76
2021/05/13 12:27:21;;;;;;;2.90;2.37;;;18.80;60.50;;;;;;4955471;28;20498;-73
2021/05/13 12:29:51;;;;;;;3.07;2.20;;;18.70;60.20;;;;;;4935345;29;20443;-74
2021/05/13 12:32:35;;;;;;;3.50;3.20;;;18.80;60.70;;;;;;4936978;28;20463;-75
2021/05/13 12:35:23;;;;;;;5.90;2.97;;;18.60;62.50;;;;;;4956040;29;20806;-75
2021/05/13 12:37:51;;;;;;;5.20;2.10;;;18.30;63.90;;;;;;4955236;28;20534;-76
2021/05/13 12:40:19;;;;;;;6.00;1.77;;;18.20;64.80;;;;;;4958848;28;20860;-75
2021/05/13 12:42:47;;;;;;;4.97;1.73;;;18.00;65.40;;;;;;4953196;28;20878;-75
2021/05/13 12:45:21;;;;;;;4.30;1.50;;;17.90;64.90;;;;;;4954636;29;20447;-74
2021/05/13 12:48:01;;;;;;;3.07;2.00;;;17.80;66.80;;;;;;4949737;28;20467;-74
2021/05/13 12:50:32;;;;;;;7.80;2.17;;;17.70;69.50;;;;;;4936518;29;20433;-74
2021/05/13 12:53:15;;;;;;;5.23;1.77;;;17.60;68.60;;;;;;4930034;28;20482;-76
2021/05/13 12:55:44;;;;;;;2.67;1.60;;;17.60;67.40;;;;;;4935308;29;20863;-74
2021/05/13 12:58:17;;;;;;;3.47;1.63;;;17.40;68.30;;;;;;4945541;28;21072;-75
2021/05/13 13:01:01;;;;;;;3.70;1.60;;;17.30;70.60;;;;;;4925857;29;20498;-74
2021/05/13 13:03:42;;;;;;;2.60;1.63;;;17.30;70.60;;;;;;4942553;28;20476;-74
2021/05/13 13:06:16;;;;;;;3.83;1.40;;;17.30;71.80;;;;;;4944944;29;20459;-76
2021/05/13 13:08:46;;;;;;;2.60;1.50;;;17.30;70.10;;;;;;4968429;28;20978;-76
2021/05/13 13:11:14;;;;;;;3.90;2.33;;;17.20;70.30;;;;;;4938886;29;20432;-75
2021/05/13 13:13:47;;;;;;;2.27;1.90;;;17.20;70.60;;;;;;4953606;28;20482;-75
2021/05/13 13:16:24;;;;;;;2.47;1.53;;;17.10;69.10;;;;;;4938044;29;20464;-77
2021/05/13 13:19:04;;;;;;;2.83;1.80;;;17.10;68.30;;;;;;4935087;28;20499;-75
2021/05/13 13:21:37;;;;;;;4.00;2.17;;;17.00;69.80;;;;;;4938302;29;20503;-75